sensor_id;sensor_type;location;lat;lon;timestamp;pressure;altitude;pressure_sealevel;temperature;humidity
57050;BME280;42935;50.966;16.992;2023-05-24T00:00:53;101367.52;;;12.60;100.00
57050;BME280;42935;50.966;16.992;2023-05-24T00:04:09;101356.70;;;12.59;100.00
57050;BME280;42935;50.966;16.992;2023-05-24T00:07:26;101353.12;;;12.59;100.00
57050;BME280;42935;50.966;16.992;2023-05-24T00:10:41;101362.37;;;12.49;100.00
57050;BME280;42935;50.966;16.992;2023-05-24T00:13:59;101364.00;;;12.46;100.00
57050;BME280;42935;50.966;16.992;2023-05-24T00:17:16;101367.51;;;12.40;100.00
57050;BME280;42935;50.966;16.992;2023-05-24T00:20:33;101369.95;;;12.39;100.00
57050;BME280;42935;50.966;16.992;2023-05-24T00:23:45;101362.09;;;12.35;100.00
57050;BME280;42935;50.966;16.992;2023-05-24T00:27:01;101373.17;;;12.39;100.00
57050;BME280;42935;50.966;16.992;2023-05-24T00:30:19;101375.07;;;12.33;100.00
57050;BME280;42935;50.966;16.992;2023-05-24T00:33:36;101381.12;;;12.28;100.00
57050;BME280;42935;50.966;16.992;2023-05-24T00:36:53;101383.83;;;12.01;100.00
57050;BME280;42935;50.966;16.992;2023-05-24T00:40:46;101380.58;;;11.94;100.00
57050;BME280;42935;50.966;16.992;2023-05-24T00:44:32;101384.87;;;11.88;100.00
57050;BME280;42935;50.966;16.992;2023-05-24T00:47:49;101373.15;;;11.86;100.00
57050;BME280;42935;50.966;16.992;2023-05-24T00:51:04;101394.52;;;11.83;100.00
57050;BME280;42935;50.966;16.992;2023-05-24T00:54:17;101388.41;;;11.69;100.00
57050;BME280;42935;50.966;16.992;2023-05-24T00:58:05;101410.87;;;11.60;100.00
57050;BME280;42935;50.966;16.992;2023-05-24T01:01:21;101408.80;;;11.40;100.00
57050;BME280;42935;50.966;16.992;2023-05-24T01:04:44;101416.70;;;11.39;100.00
57050;BME280;42935;50.966;16.992;2023-05-24T01:15:06;101422.18;;;10.91;100.00
57050;BME280;42935;50.966;16.992;2023-05-24T01:22:12;101443.66;;;10.44;100.00
57050;BME280;42935;50.966;16.992;2023-05-24T01:28:59;101454.59;;;10.27;100.00
57050;BME280;42935;50.966;16.992;2023-05-24T01:32:24;101450.91;;;10.22;100.00
57050;BME280;42935;50.966;16.992;2023-05-24T01:35:48;101445.31;;;10.07;100.00
57050;BME280;42935;50.966;16.992;2023-05-24T01:39:10;101457.68;;;10.07;100.00
57050;BME280;42935;50.966;16.992;2023-05-24T01:42:35;101453.16;;;10.00;100.00
57050;BME280;42935;50.966;16.992;2023-05-24T01:49:30;101468.02;;;9.87;100.00
57050;BME280;42935;50.966;16.992;2023-05-24T01:52:51;101474.39;;;9.80;100.00
57050;BME280;42935;50.966;16.992;2023-05-24T01:56:15;101469.48;;;9.76;100.00
57050;BME280;42935;50.966;16.992;2023-05-24T01:59:32;101485.42;;;9.73;100.00
57050;BME280;42935;50.966;16.992;2023-05-24T02:02:53;101486.15;;;9.70;100.00
57050;BME280;42935;50.966;16.992;2023-05-24T02:06:14;101499.70;;;9.65;100.00
57050;BME280;42935;50.966;16.992;2023-05-24T02:09:32;101507.44;;;9.52;100.00
57050;BME280;42935;50.966;16.992;2023-05-24T02:12:49;101512.48;;;9.57;100.00
57050;BME280;42935;50.966;16.992;2023-05-24T02:16:06;101508.56;;;9.53;100.00
57050;BME280;42935;50.966;16.992;2023-05-24T02:19:29;101518.45;;;9.46;100.00
57050;BME280;42935;50.966;16.992;2023-05-24T02:22:43;101513.89;;;9.38;100.00
57050;BME280;42935;50.966;16.992;2023-05-24T02:26:01;101511.19;;;9.41;100.00
57050;BME280;42935;50.966;16.992;2023-05-24T02:29:19;101501.37;;;9.33;100.00
57050;BME280;42935;50.966;16.992;2023-05-24T02:32:41;101502.34;;;9.33;100.00
57050;BME280;42935;50.966;16.992;2023-05-24T02:36:02;101515.34;;;9.32;100.00
57050;BME280;42935;50.966;16.992;2023-05-24T02:39:19;101521.15;;;9.31;100.00
57050;BME280;42935;50.966;16.992;2023-05-24T02:42:39;101519.73;;;9.33;100.00
57050;BME280;42935;50.966;16.992;2023-05-24T02:46:04;101516.68;;;9.34;100.00
57050;BME280;42935;50.966;16.992;2023-05-24T02:49:29;101509.98;;;9.27;100.00
57050;BME280;42935;50.966;16.992;2023-05-24T02:52:51;101519.84;;;9.28;100.00
57050;BME280;42935;50.966;16.992;2023-05-24T02:56:09;101530.80;;;9.35;100.00
57050;BME280;42935;50.966;16.992;2023-05-24T02:59:31;101534.99;;;9.37;100.00
57050;BME280;42935;50.966;16.992;2023-05-24T03:02:51;101536.94;;;9.38;100.00
57050;BME280;42935;50.966;16.992;2023-05-24T03:06:10;101540.76;;;9.35;100.00
57050;BME280;42935;50.966;16.992;2023-05-24T03:10:00;101530.44;;;9.39;100.00
57050;BME280;42935;50.966;16.992;2023-05-24T03:13:17;101539.83;;;9.45;100.00
57050;BME280;42935;50.966;16.992;2023-05-24T03:17:01;101541.74;;;9.39;100.00
57050;BME280;42935;50.966;16.992;2023-05-24T03:20:19;101546.22;;;9.46;100.00
57050;BME280;42935;50.966;16.992;2023-05-24T03:23:38;101532.06;;;9.34;100.00
57050;BME280;42935;50.966;16.992;2023-05-24T03:26:55;101513.12;;;9.22;100.00
57050;BME280;42935;50.966;16.992;2023-05-24T03:30:12;101550.20;;;9.47;100.00
57050;BME280;42935;50.966;16.992;2023-05-24T03:33:30;101550.39;;;9.45;100.00
57050;BME280;42935;50.966;16.992;2023-05-24T03:37:19;101545.46;;;9.45;100.00
57050;BME280;42935;50.966;16.992;2023-05-24T03:40:40;101544.53;;;9.45;100.00
57050;BME280;42935;50.966;16.992;2023-05-24T03:43:58;101549.47;;;9.49;100.00
57050;BME280;42935;50.966;16.992;2023-05-24T03:47:17;101542.71;;;9.49;100.00
57050;BME280;42935;50.966;16.992;2023-05-24T03:50:32;101532.92;;;9.47;100.00
57050;BME280;42935;50.966;16.992;2023-05-24T03:53:48;101544.09;;;9.40;100.00
57050;BME280;42935;50.966;16.992;2023-05-24T03:57:05;101539.57;;;9.45;100.00
57050;BME280;42935;50.966;16.992;2023-05-24T04:00:29;101536.41;;;9.43;100.00
57050;BME280;42935;50.966;16.992;2023-05-24T04:03:50;101547.41;;;9.45;100.00
57050;BME280;42935;50.966;16.992;2023-05-24T04:07:09;101558.58;;;9.48;100.00
57050;BME280;42935;50.966;16.992;2023-05-24T04:10:28;101564.39;;;9.47;100.00
57050;BME280;42935;50.966;16.992;2023-05-24T04:13:45;101564.20;;;9.51;100.00
57050;BME280;42935;50.966;16.992;2023-05-24T04:17:06;101574.73;;;9.52;100.00
57050;BME280;42935;50.966;16.992;2023-05-24T04:20:24;101579.80;;;9.54;100.00
57050;BME280;42935;50.966;16.992;2023-05-24T04:23:41;101585.52;;;9.58;100.00
57050;BME280;42935;50.966;16.992;2023-05-24T04:26:59;101588.18;;;9.61;100.00
57050;BME280;42935;50.966;16.992;2023-05-24T04:30:17;101590.79;;;9.60;100.00
57050;BME280;42935;50.966;16.992;2023-05-24T04:33:36;101590.68;;;9.61;100.00
57050;BME280;42935;50.966;16.992;2023-05-24T04:36:53;101580.54;;;9.59;100.00
57050;BME280;42935;50.966;16.992;2023-05-24T04:40:07;101589.34;;;9.73;100.00
57050;BME280;42935;50.966;16.992;2023-05-24T04:43:53;101586.03;;;9.72;100.00
57050;BME280;42935;50.966;16.992;2023-05-24T04:47:09;101598.94;;;9.73;100.00
57050;BME280;42935;50.966;16.992;2023-05-24T04:50:28;101609.29;;;9.63;100.00
57050;BME280;42935;50.966;16.992;2023-05-24T04:53:46;101617.75;;;9.62;100.00
57050;BME280;42935;50.966;16.992;2023-05-24T04:57:03;101626.23;;;9.52;100.00
57050;BME280;42935;50.966;16.992;2023-05-24T05:00:23;101629.05;;;9.62;100.00
57050;BME280;42935;50.966;16.992;2023-05-24T05:03:41;101626.91;;;9.65;100.00
57050;BME280;42935;50.966;16.992;2023-05-24T05:07:01;101629.08;;;9.68;100.00
57050;BME280;42935;50.966;16.992;2023-05-24T05:10:19;101630.23;;;9.61;100.00
57050;BME280;42935;50.966;16.992;2023-05-24T05:13:40;101634.47;;;9.68;100.00
57050;BME280;42935;50.966;16.992;2023-05-24T05:17:01;101642.27;;;9.60;100.00
57050;BME280;42935;50.966;16.992;2023-05-24T05:20:18;101649.92;;;9.64;100.00
57050;BME280;42935;50.966;16.992;2023-05-24T05:23:36;101652.97;;;9.62;100.00
57050;BME280;42935;50.966;16.992;2023-05-24T05:26:57;101645.87;;;9.48;100.00
57050;BME280;42935;50.966;16.992;2023-05-24T05:30:14;101661.12;;;9.57;100.00
57050;BME280;42935;50.966;16.992;2023-05-24T05:33:33;101665.30;;;9.43;100.00
57050;BME280;42935;50.966;16.992;2023-05-24T05:37:16;101660.65;;;9.34;100.00
57050;BME280;42935;50.966;16.992;2023-05-24T05:40:33;101659.94;;;9.42;100.00
57050;BME280;42935;50.966;16.992;2023-05-24T05:43:51;101673.73;;;9.38;100.00
57050;BME280;42935;50.966;16.992;2023-05-24T05:47:06;101674.33;;;9.36;100.00
57050;BME280;42935;50.966;16.992;2023-05-24T05:50:24;101670.87;;;9.28;100.00
57050;BME280;42935;50.966;16.992;2023-05-24T05:53:41;101674.80;;;9.29;100.00
57050;BME280;42935;50.966;16.992;2023-05-24T05:56:59;101671.91;;;9.39;100.00
57050;BME280;42935;50.966;16.992;2023-05-24T06:00:18;101664.05;;;9.36;100.00
57050;BME280;42935;50.966;16.992;2023-05-24T06:04:05;101686.76;;;9.45;100.00
57050;BME280;42935;50.966;16.992;2023-05-24T06:07:24;101690.06;;;9.44;100.00
57050;BME280;42935;50.966;16.992;2023-05-24T06:10:45;101685.46;;;9.36;100.00
57050;BME280;42935;50.966;16.992;2023-05-24T06:14:02;101682.50;;;9.31;100.00
57050;BME280;42935;50.966;16.992;2023-05-24T06:17:49;101694.75;;;9.61;100.00
57050;BME280;42935;50.966;16.992;2023-05-24T06:21:09;101687.33;;;9.66;100.00
57050;BME280;42935;50.966;16.992;2023-05-24T06:24:32;101681.16;;;9.85;100.00
57050;BME280;42935;50.966;16.992;2023-05-24T06:27:50;101681.38;;;10.07;100.00
57050;BME280;42935;50.966;16.992;2023-05-24T06:31:08;101700.16;;;9.99;100.00
57050;BME280;42935;50.966;16.992;2023-05-24T06:34:56;101713.96;;;9.87;100.00
57050;BME280;42935;50.966;16.992;2023-05-24T06:38:11;101715.50;;;10.13;100.00
57050;BME280;42935;50.966;16.992;2023-05-24T06:41:28;101730.58;;;10.21;100.00
57050;BME280;42935;50.966;16.992;2023-05-24T06:45:13;101732.17;;;10.19;100.00
57050;BME280;42935;50.966;16.992;2023-05-24T06:48:34;101734.73;;;10.33;100.00
57050;BME280;42935;50.966;16.992;2023-05-24T06:51:52;101692.95;;;10.17;100.00
57050;BME280;42935;50.966;16.992;2023-05-24T06:55:08;101694.59;;;10.02;100.00
57050;BME280;42935;50.966;16.992;2023-05-24T06:58:26;101747.84;;;10.47;100.00
57050;BME280;42935;50.966;16.992;2023-05-24T07:01:45;101755.52;;;10.13;100.00
57050;BME280;42935;50.966;16.992;2023-05-24T07:05:08;101766.44;;;10.44;100.00
57050;BME280;42935;50.966;16.992;2023-05-24T07:08:29;101765.54;;;10.33;100.00
57050;BME280;42935;50.966;16.992;2023-05-24T07:11:48;101767.87;;;10.28;100.00
57050;BME280;42935;50.966;16.992;2023-05-24T07:15:41;101779.60;;;9.84;100.00
57050;BME280;42935;50.966;16.992;2023-05-24T07:19:02;101781.05;;;9.67;100.00
57050;BME280;42935;50.966;16.992;2023-05-24T07:22:49;101782.59;;;9.95;100.00
57050;BME280;42935;50.966;16.992;2023-05-24T07:26:07;101783.52;;;10.05;100.00
57050;BME280;42935;50.966;16.992;2023-05-24T07:29:29;101769.64;;;10.14;100.00
57050;BME280;42935;50.966;16.992;2023-05-24T07:32:43;101794.75;;;10.08;100.00
57050;BME280;42935;50.966;16.992;2023-05-24T07:36:01;101805.03;;;9.90;100.00
57050;BME280;42935;50.966;16.992;2023-05-24T07:39:21;101799.99;;;9.80;100.00
57050;BME280;42935;50.966;16.992;2023-05-24T07:42:43;101816.86;;;9.83;100.00
57050;BME280;42935;50.966;16.992;2023-05-24T07:46:02;101824.11;;;9.91;100.00
57050;BME280;42935;50.966;16.992;2023-05-24T07:49:17;101825.45;;;9.77;100.00
57050;BME280;42935;50.966;16.992;2023-05-24T07:52:34;101824.27;;;9.87;100.00
57050;BME280;42935;50.966;16.992;2023-05-24T07:56:01;101829.91;;;10.39;100.00
57050;BME280;42935;50.966;16.992;2023-05-24T07:59:58;101823.32;;;10.95;100.00
57050;BME280;42935;50.966;16.992;2023-05-24T08:04:01;101823.73;;;10.76;100.00
57050;BME280;42935;50.966;16.992;2023-05-24T08:07:54;101832.29;;;10.75;100.00
57050;BME280;42935;50.966;16.992;2023-05-24T08:11:09;101826.07;;;10.69;100.00
57050;BME280;42935;50.966;16.992;2023-05-24T08:14:26;101818.98;;;10.70;100.00
57050;BME280;42935;50.966;16.992;2023-05-24T08:17:43;101808.86;;;10.91;100.00
57050;BME280;42935;50.966;16.992;2023-05-24T08:21:06;101819.66;;;11.56;100.00
57050;BME280;42935;50.966;16.992;2023-05-24T08:24:24;101816.04;;;11.79;100.00
57050;BME280;42935;50.966;16.992;2023-05-24T08:27:39;101821.85;;;12.02;100.00
57050;BME280;42935;50.966;16.992;2023-05-24T08:30:56;101823.54;;;11.37;100.00
57050;BME280;42935;50.966;16.992;2023-05-24T08:34:18;101830.80;;;11.74;100.00
57050;BME280;42935;50.966;16.992;2023-05-24T08:37:34;101827.38;;;11.41;100.00
57050;BME280;42935;50.966;16.992;2023-05-24T08:40:52;101818.52;;;11.45;100.00
57050;BME280;42935;50.966;16.992;2023-05-24T08:44:14;101826.33;;;11.62;100.00
57050;BME280;42935;50.966;16.992;2023-05-24T08:48:04;101832.88;;;11.81;100.00
57050;BME280;42935;50.966;16.992;2023-05-24T08:51:26;101828.12;;;11.83;100.00
57050;BME280;42935;50.966;16.992;2023-05-24T08:54:50;101833.48;;;11.84;100.00
57050;BME280;42935;50.966;16.992;2023-05-24T08:58:09;101830.41;;;12.21;100.00
57050;BME280;42935;50.966;16.992;2023-05-24T09:01:28;101842.78;;;12.59;100.00
57050;BME280;42935;50.966;16.992;2023-05-24T09:04:51;101842.30;;;12.31;100.00
57050;BME280;42935;50.966;16.992;2023-05-24T09:08:06;101836.13;;;12.32;100.00
57050;BME280;42935;50.966;16.992;2023-05-24T09:11:23;101842.63;;;12.22;100.00
57050;BME280;42935;50.966;16.992;2023-05-24T09:14:51;101850.22;;;12.24;100.00
57050;BME280;42935;50.966;16.992;2023-05-24T09:18:12;101843.10;;;12.65;97.76
57050;BME280;42935;50.966;16.992;2023-05-24T09:21:27;101847.95;;;12.67;95.13
57050;BME280;42935;50.966;16.992;2023-05-24T09:24:45;101839.98;;;12.40;98.53
57050;BME280;42935;50.966;16.992;2023-05-24T09:28:05;101848.13;;;12.51;99.07
57050;BME280;42935;50.966;16.992;2023-05-24T09:31:33;101853.77;;;12.83;92.35
57050;BME280;42935;50.966;16.992;2023-05-24T09:35:25;101845.81;;;13.08;93.20
57050;BME280;42935;50.966;16.992;2023-05-24T09:38:47;101852.70;;;12.85;92.04
57050;BME280;42935;50.966;16.992;2023-05-24T09:42:13;101853.32;;;12.68;94.96
57050;BME280;42935;50.966;16.992;2023-05-24T09:45:32;101860.93;;;12.60;97.42
57050;BME280;42935;50.966;16.992;2023-05-24T09:48:56;101860.28;;;12.49;97.16
57050;BME280;42935;50.966;16.992;2023-05-24T09:52:14;101863.97;;;12.50;94.86
57050;BME280;42935;50.966;16.992;2023-05-24T09:55:29;101862.97;;;12.57;95.16
57050;BME280;42935;50.966;16.992;2023-05-24T09:58:47;101865.74;;;12.73;91.54
57050;BME280;42935;50.966;16.992;2023-05-24T10:02:38;101864.05;;;12.73;94.85
57050;BME280;42935;50.966;16.992;2023-05-24T10:06:04;101867.64;;;12.72;93.69
57050;BME280;42935;50.966;16.992;2023-05-24T10:09:31;101867.97;;;12.67;92.63
57050;BME280;42935;50.966;16.992;2023-05-24T10:12:54;101870.56;;;12.36;93.46
57050;BME280;42935;50.966;16.992;2023-05-24T10:16:31;101879.77;;;12.82;94.95
57050;BME280;42935;50.966;16.992;2023-05-24T10:19:49;101871.37;;;13.55;90.24
57050;BME280;42935;50.966;16.992;2023-05-24T10:23:05;101863.21;;;13.80;85.04
57050;BME280;42935;50.966;16.992;2023-05-24T10:26:23;101864.65;;;13.63;84.86
57050;BME280;42935;50.966;16.992;2023-05-24T10:33:16;101842.30;;;13.20;89.25
57050;BME280;42935;50.966;16.992;2023-05-24T10:36:32;101860.00;;;13.67;89.67
57050;BME280;42935;50.966;16.992;2023-05-24T10:39:47;101858.58;;;13.48;87.26
57050;BME280;42935;50.966;16.992;2023-05-24T10:43:11;101863.92;;;13.71;85.26
57050;BME280;42935;50.966;16.992;2023-05-24T10:46:26;101870.73;;;13.82;84.79
57050;BME280;42935;50.966;16.992;2023-05-24T10:50:19;101875.48;;;13.64;82.21
57050;BME280;42935;50.966;16.992;2023-05-24T10:53:38;101881.83;;;13.73;81.22
57050;BME280;42935;50.966;16.992;2023-05-24T10:57:00;101868.08;;;13.75;82.23
57050;BME280;42935;50.966;16.992;2023-05-24T11:00:25;101875.04;;;14.20;83.39
57050;BME280;42935;50.966;16.992;2023-05-24T11:03:45;101878.13;;;13.44;84.89
57050;BME280;42935;50.966;16.992;2023-05-24T11:07:09;101886.28;;;13.44;87.78
57050;BME280;42935;50.966;16.992;2023-05-24T11:10:31;101889.98;;;13.78;82.83
57050;BME280;42935;50.966;16.992;2023-05-24T11:13:56;101884.91;;;13.99;83.95
57050;BME280;42935;50.966;16.992;2023-05-24T11:17:19;101886.91;;;14.28;79.82
57050;BME280;42935;50.966;16.992;2023-05-24T11:20:44;101887.16;;;14.42;80.17
57050;BME280;42935;50.966;16.992;2023-05-24T11:24:04;101879.55;;;15.21;79.29
57050;BME280;42935;50.966;16.992;2023-05-24T11:27:18;101880.06;;;15.29;73.80
57050;BME280;42935;50.966;16.992;2023-05-24T11:30:44;101869.30;;;15.33;74.18
57050;BME280;42935;50.966;16.992;2023-05-24T11:34:02;101880.55;;;14.95;75.69
57050;BME280;42935;50.966;16.992;2023-05-24T11:37:19;101881.58;;;14.70;78.58
57050;BME280;42935;50.966;16.992;2023-05-24T11:40:37;101881.04;;;14.78;77.67
57050;BME280;42935;50.966;16.992;2023-05-24T11:43:56;101874.27;;;14.31;77.79
57050;BME280;42935;50.966;16.992;2023-05-24T11:47:19;101889.62;;;14.78;78.61
57050;BME280;42935;50.966;16.992;2023-05-24T11:50:46;101893.78;;;14.50;79.26
57050;BME280;42935;50.966;16.992;2023-05-24T11:54:10;101887.37;;;14.35;81.11
57050;BME280;42935;50.966;16.992;2023-05-24T12:00:50;101890.95;;;14.76;78.33
57050;BME280;42935;50.966;16.992;2023-05-24T12:04:10;101890.90;;;15.05;77.12
57050;BME280;42935;50.966;16.992;2023-05-24T12:07:28;101890.93;;;15.05;75.48
57050;BME280;42935;50.966;16.992;2023-05-24T12:10:43;101891.93;;;15.22;76.21
57050;BME280;42935;50.966;16.992;2023-05-24T12:14:34;101895.41;;;14.86;75.84
57050;BME280;42935;50.966;16.992;2023-05-24T12:17:53;101890.16;;;15.13;75.37
57050;BME280;42935;50.966;16.992;2023-05-24T12:21:44;101883.23;;;15.26;74.30
57050;BME280;42935;50.966;16.992;2023-05-24T12:25:02;101882.28;;;15.30;73.06
57050;BME280;42935;50.966;16.992;2023-05-24T12:28:53;101879.72;;;15.64;74.27
57050;BME280;42935;50.966;16.992;2023-05-24T12:32:40;101869.97;;;15.84;70.70
57050;BME280;42935;50.966;16.992;2023-05-24T12:36:28;101866.23;;;15.98;69.93
57050;BME280;42935;50.966;16.992;2023-05-24T12:39:52;101872.38;;;16.77;68.88
57050;BME280;42935;50.966;16.992;2023-05-24T12:43:40;101870.27;;;16.42;69.36
57050;BME280;42935;50.966;16.992;2023-05-24T12:47:05;101851.33;;;15.89;72.64
57050;BME280;42935;50.966;16.992;2023-05-24T12:50:24;101883.38;;;15.77;73.10
57050;BME280;42935;50.966;16.992;2023-05-24T12:53:42;101867.84;;;16.11;70.85
57050;BME280;42935;50.966;16.992;2023-05-24T12:56:59;101871.77;;;16.08;69.93
57050;BME280;42935;50.966;16.992;2023-05-24T13:00:25;101871.25;;;16.61;69.65
57050;BME280;42935;50.966;16.992;2023-05-24T13:03:44;101873.80;;;16.40;67.23
57050;BME280;42935;50.966;16.992;2023-05-24T13:07:03;101872.06;;;17.14;68.07
57050;BME280;42935;50.966;16.992;2023-05-24T13:10:19;101868.05;;;18.19;63.81
57050;BME280;42935;50.966;16.992;2023-05-24T13:13:37;101865.70;;;17.26;64.79
57050;BME280;42935;50.966;16.992;2023-05-24T13:16:55;101870.16;;;17.55;64.68
57050;BME280;42935;50.966;16.992;2023-05-24T13:20:09;101865.65;;;17.24;65.36
57050;BME280;42935;50.966;16.992;2023-05-24T13:23:26;101870.64;;;17.08;65.76
57050;BME280;42935;50.966;16.992;2023-05-24T13:26:44;101874.59;;;16.65;66.80
57050;BME280;42935;50.966;16.992;2023-05-24T13:29:59;101865.55;;;15.93;69.60
57050;BME280;42935;50.966;16.992;2023-05-24T13:33:49;101869.43;;;16.84;68.07
57050;BME280;42935;50.966;16.992;2023-05-24T13:37:08;101856.58;;;17.69;67.09
57050;BME280;42935;50.966;16.992;2023-05-24T13:40:34;101854.58;;;18.49;64.68
57050;BME280;42935;50.966;16.992;2023-05-24T13:43:52;101856.20;;;19.05;60.81
57050;BME280;42935;50.966;16.992;2023-05-24T13:47:08;101842.66;;;19.57;59.70
57050;BME280;42935;50.966;16.992;2023-05-24T13:50:26;101841.07;;;20.01;57.17
57050;BME280;42935;50.966;16.992;2023-05-24T13:53:43;101855.19;;;19.47;57.27
57050;BME280;42935;50.966;16.992;2023-05-24T13:57:01;101821.12;;;17.80;59.95
57050;BME280;42935;50.966;16.992;2023-05-24T14:00:22;101850.48;;;17.95;60.38
57050;BME280;42935;50.966;16.992;2023-05-24T14:03:39;101814.48;;;17.56;61.77
57050;BME280;42935;50.966;16.992;2023-05-24T14:06:52;101848.05;;;18.80;59.68
57050;BME280;42935;50.966;16.992;2023-05-24T14:10:11;101853.40;;;18.67;60.42
57050;BME280;42935;50.966;16.992;2023-05-24T14:13:29;101847.91;;;19.04;60.17
57050;BME280;42935;50.966;16.992;2023-05-24T14:16:46;101843.12;;;20.55;58.68
57050;BME280;42935;50.966;16.992;2023-05-24T14:20:10;101846.06;;;19.72;56.81
57050;BME280;42935;50.966;16.992;2023-05-24T14:23:30;101849.13;;;19.30;56.07
57050;BME280;42935;50.966;16.992;2023-05-24T14:26:50;101843.70;;;18.64;56.55
57050;BME280;42935;50.966;16.992;2023-05-24T14:30:08;101840.59;;;18.59;58.23
57050;BME280;42935;50.966;16.992;2023-05-24T14:33:58;101833.48;;;18.76;57.41
57050;BME280;42935;50.966;16.992;2023-05-24T14:37:11;101841.51;;;17.55;59.85
57050;BME280;42935;50.966;16.992;2023-05-24T14:40:29;101840.80;;;18.25;60.48
57050;BME280;42935;50.966;16.992;2023-05-24T14:43:52;101848.72;;;18.21;59.07
57050;BME280;42935;50.966;16.992;2023-05-24T14:47:10;101849.55;;;18.16;59.51
57050;BME280;42935;50.966;16.992;2023-05-24T14:50:26;101845.74;;;18.88;60.75
57050;BME280;42935;50.966;16.992;2023-05-24T14:53:44;101849.29;;;19.39;57.45
57050;BME280;42935;50.966;16.992;2023-05-24T14:57:32;101852.39;;;18.05;57.50
57050;BME280;42935;50.966;16.992;2023-05-24T15:00:49;101851.70;;;17.94;60.50
57050;BME280;42935;50.966;16.992;2023-05-24T15:04:08;101846.20;;;18.80;58.43
57050;BME280;42935;50.966;16.992;2023-05-24T15:07:26;101843.76;;;18.91;56.57
57050;BME280;42935;50.966;16.992;2023-05-24T15:10:43;101831.12;;;19.92;57.16
57050;BME280;42935;50.966;16.992;2023-05-24T15:14:01;101833.35;;;21.03;56.64
57050;BME280;42935;50.966;16.992;2023-05-24T15:17:48;101833.94;;;21.65;53.00
57050;BME280;42935;50.966;16.992;2023-05-24T15:21:06;101818.26;;;22.40;52.48
57050;BME280;42935;50.966;16.992;2023-05-24T15:24:23;101835.58;;;21.15;51.35
57050;BME280;42935;50.966;16.992;2023-05-24T15:27:40;101833.48;;;19.83;53.34
57050;BME280;42935;50.966;16.992;2023-05-24T15:30:58;101827.90;;;19.51;54.97
57050;BME280;42935;50.966;16.992;2023-05-24T15:34:19;101827.19;;;19.15;55.95
57050;BME280;42935;50.966;16.992;2023-05-24T15:37:38;101834.13;;;19.30;56.11
57050;BME280;42935;50.966;16.992;2023-05-24T15:41:29;101833.86;;;19.05;56.72
57050;BME280;42935;50.966;16.992;2023-05-24T15:44:47;101812.96;;;18.75;56.91
57050;BME280;42935;50.966;16.992;2023-05-24T15:48:32;101832.45;;;18.43;57.00
57050;BME280;42935;50.966;16.992;2023-05-24T15:51:49;101832.08;;;18.02;57.09
57050;BME280;42935;50.966;16.992;2023-05-24T15:55:09;101835.08;;;17.71;58.90
57050;BME280;42935;50.966;16.992;2023-05-24T15:58:26;101831.86;;;18.58;58.86
57050;BME280;42935;50.966;16.992;2023-05-24T16:01:39;101833.98;;;19.58;56.79
57050;BME280;42935;50.966;16.992;2023-05-24T16:04:53;101828.05;;;19.65;55.45
57050;BME280;42935;50.966;16.992;2023-05-24T16:08:08;101819.51;;;20.21;54.29
57050;BME280;42935;50.966;16.992;2023-05-24T16:11:31;101829.49;;;19.93;54.55
57050;BME280;42935;50.966;16.992;2023-05-24T16:14:44;101834.15;;;19.50;55.10
57050;BME280;42935;50.966;16.992;2023-05-24T16:18:00;101834.05;;;20.08;56.12
57050;BME280;42935;50.966;16.992;2023-05-24T16:21:20;101835.72;;;20.58;54.67
57050;BME280;42935;50.966;16.992;2023-05-24T16:24:41;101829.20;;;20.70;54.36
57050;BME280;42935;50.966;16.992;2023-05-24T16:28:00;101845.72;;;20.81;53.55
57050;BME280;42935;50.966;16.992;2023-05-24T16:31:15;101848.05;;;20.23;53.51
57050;BME280;42935;50.966;16.992;2023-05-24T16:34:31;101848.84;;;19.08;54.94
57050;BME280;42935;50.966;16.992;2023-05-24T16:37:46;101855.24;;;19.51;54.71
57050;BME280;42935;50.966;16.992;2023-05-24T16:41:05;101847.88;;;19.58;56.03
57050;BME280;42935;50.966;16.992;2023-05-24T16:44:19;101857.36;;;19.81;53.54
57050;BME280;42935;50.966;16.992;2023-05-24T16:47:36;101859.98;;;19.75;54.00
57050;BME280;42935;50.966;16.992;2023-05-24T16:51:00;101863.54;;;18.74;55.71
57050;BME280;42935;50.966;16.992;2023-05-24T16:54:17;101859.89;;;19.52;56.82
57050;BME280;42935;50.966;16.992;2023-05-24T16:57:37;101867.79;;;18.56;56.95
57050;BME280;42935;50.966;16.992;2023-05-24T17:00:56;101872.65;;;18.57;57.12
57050;BME280;42935;50.966;16.992;2023-05-24T17:04:13;101866.30;;;18.34;58.34
57050;BME280;42935;50.966;16.992;2023-05-24T17:07:27;101871.52;;;18.34;57.07
57050;BME280;42935;50.966;16.992;2023-05-24T17:11:13;101881.46;;;17.95;58.56
57050;BME280;42935;50.966;16.992;2023-05-24T17:14:31;101876.59;;;18.01;58.34
57050;BME280;42935;50.966;16.992;2023-05-24T17:18:18;101879.20;;;18.64;59.13
57050;BME280;42935;50.966;16.992;2023-05-24T17:22:12;101856.55;;;18.66;59.68
57050;BME280;42935;50.966;16.992;2023-05-24T17:25:57;101879.97;;;18.90;58.90
57050;BME280;42935;50.966;16.992;2023-05-24T17:29:16;101890.61;;;19.02;59.07
57050;BME280;42935;50.966;16.992;2023-05-24T17:32:33;101896.08;;;19.31;58.38
57050;BME280;42935;50.966;16.992;2023-05-24T17:35:51;101894.47;;;19.34;57.95
57050;BME280;42935;50.966;16.992;2023-05-24T17:39:11;101904.19;;;18.94;59.17
57050;BME280;42935;50.966;16.992;2023-05-24T17:42:26;101910.45;;;18.89;59.23
57050;BME280;42935;50.966;16.992;2023-05-24T17:45:42;101910.76;;;18.72;60.37